createdAt,value
2018-06-15T00:00:10.608Z,14.80
2018-06-15T00:02:39.648Z,14.80
2018-06-15T00:05:08.748Z,14.70
2018-06-15T00:07:38.053Z,14.70
2018-06-15T00:10:07.193Z,14.70
2018-06-15T00:12:36.312Z,14.70
2018-06-15T00:15:05.436Z,14.70
2018-06-15T00:17:34.524Z,14.70
2018-06-15T00:20:03.620Z,14.80
2018-06-15T00:22:32.879Z,14.80
2018-06-15T00:25:02.304Z,14.80
2018-06-15T00:27:31.429Z,14.80
2018-06-15T00:30:00.728Z,14.80
2018-06-15T00:32:29.820Z,14.80
2018-06-15T00:34:58.968Z,14.80
2018-06-15T00:37:28.380Z,14.80
2018-06-15T00:39:58.440Z,14.80
2018-06-15T00:42:27.586Z,14.80
2018-06-15T00:44:56.704Z,14.80
2018-06-15T00:47:26.061Z,14.90
2018-06-15T00:49:55.180Z,14.80
2018-06-15T00:52:24.329Z,14.70
2018-06-15T00:54:53.704Z,14.70
2018-06-15T00:57:43.088Z,14.70
2018-06-15T01:00:12.568Z,14.70
2018-06-15T01:02:41.904Z,14.70
2018-06-15T01:05:10.972Z,14.70
2018-06-15T01:07:40.075Z,14.70
2018-06-15T01:10:09.192Z,14.70
2018-06-15T01:12:38.369Z,14.70
2018-06-15T01:15:08.008Z,14.70
2018-06-15T01:17:37.360Z,14.80
2018-06-15T01:20:06.468Z,14.80
2018-06-15T01:22:35.896Z,14.80
2018-06-15T01:25:05.093Z,14.80
2018-06-15T01:27:34.348Z,14.80
2018-06-15T01:30:04.823Z,14.80
2018-06-15T01:32:33.920Z,14.70
2018-06-15T01:35:02.972Z,14.70
2018-06-15T01:37:32.096Z,14.70
2018-06-15T01:40:01.382Z,14.60
2018-06-15T01:42:30.473Z,14.60
2018-06-15T01:44:59.856Z,14.70
2018-06-15T01:47:28.956Z,14.60
2018-06-15T01:49:58.100Z,14.60
2018-06-15T01:52:27.408Z,14.60
2018-06-15T01:54:56.452Z,14.60
2018-06-15T01:57:25.576Z,14.60
2018-06-15T01:59:54.992Z,14.60
2018-06-15T02:02:24.088Z,14.50
2018-06-15T02:04:53.300Z,14.60
2018-06-15T02:07:22.640Z,14.60
2018-06-15T02:09:52.060Z,14.70
2018-06-15T02:12:21.176Z,14.70
2018-06-15T02:14:50.563Z,14.70
2018-06-15T02:17:19.712Z,14.80
2018-06-15T02:19:48.829Z,14.80
2018-06-15T02:22:17.950Z,14.70
2018-06-15T02:24:47.084Z,14.70
2018-06-15T02:27:16.168Z,14.70
2018-06-15T02:29:45.549Z,14.70
2018-06-15T02:32:14.676Z,14.80
2018-06-15T02:34:43.772Z,14.80
2018-06-15T02:37:12.976Z,14.80
2018-06-15T02:39:42.024Z,14.80
2018-06-15T02:42:11.328Z,14.80
2018-06-15T02:44:40.760Z,14.80
2018-06-15T02:47:09.856Z,14.80
2018-06-15T02:49:39.000Z,14.80
2018-06-15T02:52:08.295Z,14.80
2018-06-15T02:54:37.448Z,14.80
2018-06-15T02:57:06.604Z,14.80
2018-06-15T02:59:35.969Z,14.70
2018-06-15T03:02:05.522Z,14.70
2018-06-15T03:04:34.696Z,14.70
2018-06-15T03:07:03.897Z,14.70
2018-06-15T03:09:33.012Z,14.70
2018-06-15T03:12:02.108Z,14.70
2018-06-15T03:14:31.656Z,14.70
2018-06-15T03:17:00.807Z,14.70
2018-06-15T03:19:30.144Z,14.70
2018-06-15T03:21:59.215Z,14.70
2018-06-15T03:24:28.353Z,14.70
2018-06-15T03:26:57.476Z,14.60
2018-06-15T03:29:26.584Z,14.70
2018-06-15T03:31:55.825Z,14.60
2018-06-15T03:34:24.921Z,14.60
2018-06-15T03:36:54.321Z,14.60
2018-06-15T03:39:23.375Z,14.60
2018-06-15T03:41:52.454Z,14.60
2018-06-15T03:44:22.025Z,14.60
2018-06-15T03:46:51.112Z,14.60
2018-06-15T03:49:20.197Z,14.60
2018-06-15T03:51:50.178Z,14.60
2018-06-15T03:54:19.280Z,14.60
2018-06-15T03:56:48.593Z,14.70
2018-06-15T03:59:17.992Z,14.70
2018-06-15T04:01:47.088Z,14.80
2018-06-15T04:04:16.213Z,14.80
2018-06-15T04:06:45.308Z,14.80
2018-06-15T04:09:14.504Z,14.80
2018-06-15T04:11:43.616Z,14.90
2018-06-15T04:14:13.824Z,14.90
2018-06-15T04:16:42.920Z,14.90
2018-06-15T04:19:12.017Z,14.90
2018-06-15T04:21:41.364Z,14.90
2018-06-15T04:24:10.484Z,14.90
2018-06-15T04:26:39.708Z,14.90
2018-06-15T04:29:09.114Z,14.90
2018-06-15T04:31:38.993Z,14.90
2018-06-15T04:34:08.096Z,15.00
2018-06-15T04:36:37.188Z,15.10
2018-06-15T04:39:08.827Z,15.20
2018-06-15T04:41:37.990Z,15.10
2018-06-15T04:44:07.221Z,15.00
2018-06-15T04:46:36.416Z,15.00
2018-06-15T04:49:05.652Z,15.00
2018-06-15T04:51:34.733Z,15.10
2018-06-15T04:54:04.306Z,15.10
2018-06-15T04:56:33.464Z,15.20
2018-06-15T04:59:02.520Z,15.20
2018-06-15T05:01:32.500Z,15.30
2018-06-15T05:04:01.591Z,15.30
2018-06-15T05:06:30.684Z,15.30
2018-06-15T05:09:00.113Z,15.30
2018-06-15T05:11:29.212Z,15.30
2018-06-15T05:13:58.646Z,15.40
2018-06-15T05:16:28.597Z,15.50
2018-06-15T05:18:58.546Z,15.60
2018-06-15T05:21:27.656Z,15.70
2018-06-15T05:23:57.732Z,15.80
2018-06-15T05:26:27.573Z,15.90
2018-06-15T05:28:57.284Z,16.10
2018-06-15T05:31:27.260Z,16.20
2018-06-15T05:33:57.361Z,16.30
2018-06-15T05:36:27.105Z,16.20
2018-06-15T05:38:56.817Z,16.20
2018-06-15T05:41:26.443Z,16.30
2018-06-15T05:43:56.384Z,16.40
2018-06-15T05:46:26.133Z,16.50
2018-06-15T05:48:55.857Z,16.70
2018-06-15T05:51:25.661Z,16.80
2018-06-15T05:53:55.512Z,17.00
2018-06-15T05:56:25.886Z,17.10
2018-06-15T05:58:56.388Z,17.20
2018-06-15T06:01:26.177Z,17.40
2018-06-15T06:03:55.964Z,17.60
2018-06-15T06:06:25.033Z,17.60
2018-06-15T06:08:54.845Z,17.70
2018-06-15T06:11:24.985Z,17.70
2018-06-15T06:13:54.872Z,17.60
2018-06-15T06:16:23.988Z,17.80
2018-06-15T06:18:53.120Z,17.90
2018-06-15T06:21:23.060Z,18.10
2018-06-15T06:23:52.885Z,18.10
2018-06-15T06:26:22.833Z,18.00
2018-06-15T06:28:53.881Z,18.10
2018-06-15T06:31:23.680Z,18.20
2018-06-15T06:33:53.890Z,18.30
2018-06-15T06:36:23.615Z,18.20
2018-06-15T06:38:53.385Z,18.20
2018-06-15T06:41:23.744Z,18.20
2018-06-15T06:43:53.449Z,18.20
2018-06-15T06:46:23.053Z,17.90
2018-06-15T06:48:52.752Z,18.00
2018-06-15T06:51:22.213Z,18.10
2018-06-15T06:53:52.209Z,18.10
2018-06-15T06:56:22.273Z,18.20
2018-06-15T06:58:52.067Z,18.30
2018-06-15T07:01:22.159Z,18.50
2018-06-15T07:03:52.005Z,18.80
2018-06-15T07:06:22.221Z,18.60
2018-06-15T07:08:51.824Z,18.90
2018-06-15T07:11:21.483Z,19.00
2018-06-15T07:13:51.192Z,19.10
2018-06-15T07:16:20.953Z,19.20
2018-06-15T07:18:50.701Z,19.40
2018-06-15T07:21:21.008Z,19.60
2018-06-15T07:23:50.900Z,19.70
2018-06-15T07:26:21.068Z,19.70
2018-06-15T07:28:50.668Z,19.70
2018-06-15T07:31:20.592Z,19.60
2018-06-15T07:33:50.795Z,19.10
2018-06-15T07:36:21.565Z,18.80
2018-06-15T07:38:51.349Z,19.60
2018-06-15T07:41:21.368Z,19.80
2018-06-15T07:43:51.854Z,20.50
2018-06-15T07:46:22.000Z,21.10
2018-06-15T07:48:51.932Z,21.60
2018-06-15T07:51:21.872Z,22.60
2018-06-15T07:53:51.950Z,22.80
2018-06-15T07:56:21.904Z,23.20
2018-06-15T07:58:51.856Z,23.50
2018-06-15T08:01:22.282Z,23.90
2018-06-15T08:03:59.381Z,24.50
2018-06-15T08:06:29.408Z,24.80
2018-06-15T08:08:59.970Z,25.00
2018-06-15T08:11:30.209Z,24.80
2018-06-15T08:13:59.456Z,25.40
2018-06-15T08:16:29.562Z,25.60
2018-06-15T08:18:59.416Z,25.30
2018-06-15T08:21:29.541Z,24.90
2018-06-15T08:23:59.461Z,23.50
2018-06-15T08:26:29.516Z,21.70
2018-06-15T08:28:59.891Z,21.00
2018-06-15T08:31:29.808Z,20.50
2018-06-15T08:33:59.517Z,20.50
2018-06-15T08:36:29.546Z,21.50
2018-06-15T08:38:59.628Z,22.70
2018-06-15T08:41:29.662Z,22.90
2018-06-15T08:43:59.735Z,22.20
2018-06-15T08:46:29.696Z,22.30
2018-06-15T08:48:59.668Z,22.50
2018-06-15T08:51:29.612Z,22.30
2018-06-15T08:53:59.780Z,23.40
2018-06-15T08:56:29.981Z,22.40
2018-06-15T08:58:59.133Z,22.00
2018-06-15T09:01:28.860Z,23.50
2018-06-15T09:03:59.173Z,24.30
2018-06-15T09:06:28.264Z,25.30
2018-06-15T09:08:58.065Z,26.20
2018-06-15T09:11:28.133Z,27.70
2018-06-15T09:13:57.896Z,28.80
2018-06-15T09:16:27.935Z,29.60
2018-06-15T09:18:57.780Z,29.70
2018-06-15T09:21:27.740Z,28.30
2018-06-15T09:23:57.769Z,26.30
2018-06-15T09:26:28.288Z,27.50
2018-06-15T09:28:58.376Z,28.00
2018-06-15T09:31:29.439Z,27.60
2018-06-15T09:33:59.237Z,27.60
2018-06-15T09:36:29.225Z,28.00
2018-06-15T09:38:58.847Z,26.90
2018-06-15T09:41:28.795Z,26.70
2018-06-15T09:43:59.220Z,26.20
2018-06-15T09:46:28.956Z,25.70
2018-06-15T09:48:59.312Z,25.60
2018-06-15T09:51:29.458Z,25.60
2018-06-15T09:53:59.359Z,26.00
2018-06-15T09:56:29.264Z,26.30
2018-06-15T09:58:59.437Z,26.10
2018-06-15T10:01:29.090Z,25.80
2018-06-15T10:03:59.693Z,25.30
2018-06-15T10:06:30.528Z,25.40
2018-06-15T10:09:00.296Z,25.80
2018-06-15T10:11:30.800Z,25.30
2018-06-15T10:14:01.092Z,25.10
2018-06-15T10:16:32.008Z,25.60
2018-06-15T10:19:02.027Z,26.50
2018-06-15T10:21:32.046Z,27.10
2018-06-15T10:24:01.981Z,28.10
2018-06-15T10:26:31.901Z,28.20
2018-06-15T10:29:01.944Z,29.40
2018-06-15T10:31:32.547Z,29.40
2018-06-15T10:34:02.745Z,25.60
2018-06-15T10:36:33.200Z,25.30
2018-06-15T10:39:02.875Z,26.50
2018-06-15T10:41:32.613Z,29.00
2018-06-15T10:44:02.816Z,29.20
2018-06-15T10:46:32.929Z,26.10
2018-06-15T10:49:03.488Z,25.60
2018-06-15T10:51:33.540Z,26.20
2018-06-15T10:54:03.357Z,27.60
2018-06-15T10:56:33.154Z,29.00
2018-06-15T10:59:03.018Z,29.00
2018-06-15T11:01:33.088Z,28.60
2018-06-15T11:04:02.852Z,28.00
2018-06-15T11:06:32.680Z,27.40
2018-06-15T11:09:02.655Z,27.10
2018-06-15T11:11:32.289Z,26.60
2018-06-15T11:14:02.085Z,25.80
2018-06-15T11:16:32.141Z,25.40
2018-06-15T11:19:02.142Z,25.20
2018-06-15T11:21:31.850Z,25.30
2018-06-15T11:24:01.801Z,25.20
2018-06-15T11:26:31.313Z,25.00
2018-06-15T11:29:00.964Z,24.80
2018-06-15T11:31:30.640Z,24.70
2018-06-15T11:34:00.297Z,24.50
2018-06-15T11:36:30.352Z,24.10
2018-06-15T11:39:00.428Z,24.00
2018-06-15T11:41:29.640Z,24.00
2018-06-15T11:43:59.412Z,24.20
2018-06-15T11:46:28.599Z,24.10
2018-06-15T11:48:58.451Z,24.00
2018-06-15T11:51:27.660Z,24.10
2018-06-15T11:53:57.817Z,24.10
2018-06-15T11:56:28.224Z,24.10
2018-06-15T11:58:58.027Z,24.20
2018-06-15T12:01:28.034Z,24.20
2018-06-15T12:03:57.885Z,24.00
2018-06-15T12:06:29.230Z,24.00
2018-06-15T12:08:59.677Z,24.30
2018-06-15T12:11:29.770Z,23.80
2018-06-15T12:14:01.511Z,24.10
2018-06-15T12:16:31.685Z,24.20
2018-06-15T12:19:03.622Z,23.40
2018-06-15T12:21:34.679Z,23.50
2018-06-15T12:24:05.182Z,23.80
2018-06-15T12:26:35.620Z,23.70
2018-06-15T12:29:05.639Z,23.90
2018-06-15T12:31:36.617Z,23.70
2018-06-15T12:34:05.935Z,23.70
2018-06-15T12:36:37.270Z,23.70
2018-06-15T12:39:08.945Z,23.90
2018-06-15T12:41:39.488Z,23.30
2018-06-15T12:44:10.521Z,23.40
2018-06-15T12:46:40.775Z,23.50
2018-06-15T12:49:11.009Z,23.70
2018-06-15T12:51:41.006Z,24.00
2018-06-15T12:54:10.996Z,24.10
2018-06-15T12:56:40.771Z,24.10
2018-06-15T12:59:11.247Z,24.00
2018-06-15T13:01:41.326Z,24.30
2018-06-15T13:04:11.566Z,24.20
2018-06-15T13:06:41.663Z,24.30
2018-06-15T13:09:12.246Z,24.30
2018-06-15T13:11:42.468Z,24.00
2018-06-15T13:14:12.617Z,24.10
2018-06-15T13:16:42.518Z,24.00
2018-06-15T13:19:12.390Z,24.00
2018-06-15T13:21:42.511Z,24.10
2018-06-15T13:24:13.639Z,24.40
2018-06-15T13:26:43.744Z,24.80
2018-06-15T13:29:13.008Z,25.00
2018-06-15T13:31:42.277Z,25.00
2018-06-15T13:34:12.305Z,25.10
2018-06-15T13:36:42.339Z,25.20
2018-06-15T13:39:14.080Z,25.20
2018-06-15T13:41:44.293Z,24.80
2018-06-15T13:44:15.136Z,24.70
2018-06-15T13:46:44.310Z,25.00
2018-06-15T13:49:13.517Z,24.30
2018-06-15T13:51:43.011Z,24.00
2018-06-15T13:54:12.961Z,24.30
2018-06-15T13:56:43.357Z,24.40
2018-06-15T13:59:13.096Z,24.70
2018-06-15T14:01:43.268Z,24.80
2018-06-15T14:04:12.976Z,24.50
2018-06-15T14:06:43.316Z,24.30
2018-06-15T14:09:12.926Z,24.50
2018-06-15T14:11:42.773Z,24.70
2018-06-15T14:14:12.656Z,25.00
2018-06-15T14:16:42.449Z,24.70
2018-06-15T14:19:12.465Z,24.90
2018-06-15T14:21:42.461Z,24.50
2018-06-15T14:24:12.336Z,24.10
2018-06-15T14:26:42.005Z,23.70
2018-06-15T14:29:11.956Z,23.70
2018-06-15T14:31:41.845Z,24.00
2018-06-15T14:34:11.953Z,23.50
2018-06-15T14:36:42.184Z,23.50
2018-06-15T14:39:12.556Z,23.50
2018-06-15T14:41:42.824Z,23.50
2018-06-15T14:44:12.639Z,23.60
2018-06-15T14:46:41.789Z,23.80
2018-06-15T14:49:11.658Z,24.10
2018-06-15T14:51:41.687Z,23.90
2018-06-15T14:54:12.744Z,24.10
2018-06-15T14:56:43.702Z,24.00
2018-06-15T14:59:13.700Z,24.00
2018-06-15T15:01:43.940Z,24.10
2018-06-15T15:04:13.797Z,23.80
2018-06-15T15:06:42.940Z,24.00
2018-06-15T15:09:12.844Z,24.10
2018-06-15T15:11:41.957Z,23.90
2018-06-15T15:14:11.945Z,23.70
2018-06-15T15:16:41.684Z,23.70
2018-06-15T15:19:11.658Z,23.50
2018-06-15T15:21:41.364Z,23.30
2018-06-15T15:24:10.546Z,23.20
2018-06-15T15:26:39.791Z,23.20
2018-06-15T15:29:08.904Z,23.20
2018-06-15T15:31:38.005Z,23.10
2018-06-15T15:34:08.910Z,23.10
2018-06-15T15:36:39.024Z,23.20
2018-06-15T15:39:10.196Z,23.10
2018-06-15T15:41:39.464Z,23.20
2018-06-15T15:44:09.921Z,23.00
2018-06-15T15:46:39.848Z,22.90
2018-06-15T15:49:09.828Z,22.90
2018-06-15T15:51:38.956Z,22.70
2018-06-15T15:54:08.088Z,22.50
2018-06-15T15:56:37.499Z,22.60
2018-06-15T15:59:06.650Z,22.50
2018-06-15T16:01:35.812Z,22.50
2018-06-15T16:04:05.108Z,22.40
2018-06-15T16:06:34.236Z,22.30
2018-06-15T16:09:03.461Z,22.10
2018-06-15T16:11:33.029Z,22.20
2018-06-15T16:14:02.344Z,22.20
2018-06-15T16:16:32.148Z,22.30
2018-06-15T16:19:01.252Z,22.30
2018-06-15T16:21:30.346Z,22.40
2018-06-15T16:23:59.752Z,22.40
2018-06-15T16:26:28.832Z,22.10
2018-06-15T16:28:57.992Z,21.90
2018-06-15T16:31:27.096Z,22.00
2018-06-15T16:33:56.337Z,22.10
2018-06-15T16:36:26.148Z,21.70
2018-06-15T16:38:55.267Z,21.90
2018-06-15T16:41:24.412Z,22.00
2018-06-15T16:43:53.536Z,22.10
2018-06-15T16:46:22.620Z,22.20
2018-06-15T16:48:51.829Z,22.20
2018-06-15T16:51:21.704Z,22.20
2018-06-15T16:53:50.828Z,22.30
2018-06-15T16:56:20.877Z,22.00
2018-06-15T16:58:50.040Z,22.10
2018-06-15T17:01:19.112Z,22.10
2018-06-15T17:03:48.953Z,22.20
2018-06-15T17:06:18.057Z,22.30
2018-06-15T17:08:47.228Z,22.20
2018-06-15T17:11:17.317Z,22.20
2018-06-15T17:13:47.032Z,22.20
2018-06-15T17:16:16.896Z,22.20
2018-06-15T17:18:46.512Z,22.10
2018-06-15T17:21:15.561Z,22.00
2018-06-15T17:23:44.740Z,21.90
2018-06-15T17:26:13.841Z,21.80
2018-06-15T17:28:43.504Z,21.70
2018-06-15T17:31:12.688Z,21.60
2018-06-15T17:33:41.765Z,21.50
2018-06-15T17:36:10.896Z,21.50
2018-06-15T17:38:39.956Z,21.50
2018-06-15T17:41:09.943Z,21.30
2018-06-15T17:43:39.760Z,21.20
2018-06-15T17:46:08.956Z,21.10
2018-06-15T17:48:39.142Z,21.10
2018-06-15T17:51:08.302Z,20.90
2018-06-15T17:53:37.420Z,20.80
2018-06-15T17:56:06.807Z,20.70
2018-06-15T17:58:35.916Z,20.70
2018-06-15T18:01:05.809Z,20.70
2018-06-15T18:03:34.944Z,20.60
2018-06-15T18:06:04.028Z,20.60
2018-06-15T18:08:33.161Z,20.60
2018-06-15T18:11:02.292Z,20.50
2018-06-15T18:13:31.696Z,20.50
2018-06-15T18:16:00.762Z,20.50
2018-06-15T18:18:29.873Z,20.40
2018-06-15T18:20:59.053Z,20.40
2018-06-15T18:23:28.201Z,20.30
2018-06-15T18:25:57.757Z,20.30
2018-06-15T18:28:26.820Z,20.20
2018-06-15T18:30:56.035Z,20.30
2018-06-15T18:33:25.408Z,20.20
2018-06-15T18:35:54.750Z,20.20
2018-06-15T18:38:24.672Z,20.20
2018-06-15T18:40:53.937Z,20.10
2018-06-15T18:43:23.031Z,20.00
2018-06-15T18:45:52.104Z,19.90
2018-06-15T18:48:21.168Z,19.90
2018-06-15T18:50:50.369Z,19.90
2018-06-15T18:53:19.760Z,19.90
2018-06-15T18:55:49.845Z,19.90
2018-06-15T18:58:18.997Z,19.90
2018-06-15T19:00:48.093Z,19.90
2018-06-15T19:03:17.892Z,19.90
2018-06-15T19:05:47.612Z,19.90
2018-06-15T19:08:16.724Z,19.80
2018-06-15T19:10:45.845Z,19.60
2018-06-15T19:13:15.440Z,19.50
2018-06-15T19:15:44.636Z,19.50
2018-06-15T19:18:13.809Z,19.40
2018-06-15T19:20:42.951Z,19.40
2018-06-15T19:23:12.792Z,19.40
2018-06-15T19:25:41.940Z,19.40
2018-06-15T19:28:11.005Z,19.30
2018-06-15T19:30:41.207Z,19.30
2018-06-15T19:33:10.303Z,19.30
2018-06-15T19:35:39.422Z,19.30
2018-06-15T19:38:08.744Z,19.20
2018-06-15T19:40:37.816Z,19.10
2018-06-15T19:43:07.095Z,18.90
2018-06-15T19:45:36.490Z,18.80
2018-06-15T19:48:05.717Z,18.80
2018-06-15T19:50:34.812Z,18.80
2018-06-15T19:53:04.116Z,18.80
2018-06-15T19:55:33.309Z,18.70
2018-06-15T19:58:02.424Z,18.60
2018-06-15T20:00:33.061Z,18.40
2018-06-15T20:03:02.921Z,18.40
2018-06-15T20:05:32.018Z,18.30
2018-06-15T20:08:01.168Z,18.40
2018-06-15T20:10:30.572Z,18.40
2018-06-15T20:12:59.703Z,18.30
2018-06-15T20:15:28.838Z,18.30
2018-06-15T20:17:57.988Z,18.30
2018-06-15T20:20:27.864Z,18.30
2018-06-15T20:22:56.972Z,18.20
2018-06-15T20:25:26.086Z,18.20
2018-06-15T20:27:55.520Z,18.20
2018-06-15T20:30:24.616Z,18.20
2018-06-15T20:32:53.776Z,18.20
2018-06-15T20:35:23.173Z,18.20
2018-06-15T20:37:52.310Z,18.20
2018-06-15T20:40:21.512Z,18.20
2018-06-15T20:42:50.821Z,18.20
2018-06-15T20:45:20.035Z,18.20
2018-06-15T20:47:49.164Z,18.20
2018-06-15T20:50:18.296Z,18.20
2018-06-15T20:52:47.408Z,18.20
2018-06-15T20:55:16.518Z,18.20
2018-06-15T20:57:45.700Z,18.20
2018-06-15T21:00:14.809Z,18.30
2018-06-15T21:02:43.932Z,18.20
2018-06-15T21:05:13.144Z,18.10
2018-06-15T21:07:42.301Z,18.10
2018-06-15T21:10:11.577Z,18.10
2018-06-15T21:12:40.944Z,18.00
2018-06-15T21:15:10.664Z,18.00
2018-06-15T21:17:40.012Z,18.00
2018-06-15T21:20:09.136Z,18.00
2018-06-15T21:22:38.844Z,18.00
2018-06-15T21:25:08.324Z,17.90
2018-06-15T21:27:37.486Z,17.90
2018-06-15T21:30:07.484Z,17.90
2018-06-15T21:32:36.577Z,17.90
2018-06-15T21:35:05.816Z,17.90
2018-06-15T21:37:34.944Z,17.80
2018-06-15T21:40:04.760Z,17.80
2018-06-15T21:42:34.547Z,17.80
2018-06-15T21:45:03.728Z,17.70
2018-06-15T21:47:32.845Z,17.60
2018-06-15T21:50:01.968Z,17.60
2018-06-15T21:52:31.576Z,17.60
2018-06-15T21:55:00.879Z,17.60
2018-06-15T21:57:29.969Z,17.50
2018-06-15T21:59:59.128Z,17.40
2018-06-15T22:02:28.225Z,17.50
2018-06-15T22:04:57.892Z,17.40
2018-06-15T22:07:27.381Z,17.40
2018-06-15T22:09:56.438Z,17.50
2018-06-15T22:12:25.509Z,17.40
2018-06-15T22:14:54.724Z,17.50
2018-06-15T22:17:23.833Z,17.40
2018-06-15T22:19:53.164Z,17.50
2018-06-15T22:22:22.505Z,17.50
2018-06-15T22:24:51.627Z,17.40
2018-06-15T22:27:20.754Z,17.40
2018-06-15T22:29:49.941Z,17.30
2018-06-15T22:32:19.353Z,17.40
2018-06-15T22:34:48.392Z,17.30
2018-06-15T22:37:17.708Z,17.30
2018-06-15T22:39:46.860Z,17.30
2018-06-15T22:42:15.900Z,17.20
2018-06-15T22:44:45.713Z,17.10
2018-06-15T22:47:14.865Z,17.10
2018-06-15T22:49:43.916Z,17.10
2018-06-15T22:52:13.056Z,17.00
2018-06-15T22:54:42.138Z,16.90
2018-06-15T22:57:11.316Z,16.80
2018-06-15T22:59:40.452Z,16.80
2018-06-15T23:02:09.585Z,16.80
2018-06-15T23:04:38.695Z,16.80
2018-06-15T23:07:08.032Z,16.80
2018-06-15T23:09:37.400Z,16.70
2018-06-15T23:12:06.568Z,16.60
2018-06-15T23:14:36.378Z,16.60
2018-06-15T23:17:05.401Z,16.50
2018-06-15T23:19:35.437Z,16.40
2018-06-15T23:22:04.891Z,16.40
2018-06-15T23:24:34.004Z,16.40
2018-06-15T23:27:03.082Z,16.50
2018-06-15T23:29:32.382Z,16.50
2018-06-15T23:32:01.537Z,16.50
2018-06-15T23:34:30.821Z,16.50
2018-06-15T23:36:59.920Z,16.50
2018-06-15T23:39:29.016Z,16.50
2018-06-15T23:41:58.112Z,16.50
2018-06-15T23:44:27.268Z,16.60
2018-06-15T23:46:56.696Z,16.50
2018-06-15T23:49:25.788Z,16.60
2018-06-15T23:51:55.090Z,16.60
2018-06-15T23:54:24.212Z,16.60
2018-06-15T23:56:53.300Z,16.60
2018-06-15T23:59:22.716Z,16.60
